GCHI

Details ICAO GCHI (VDE)
Name El Hierro "Los Cangrejos"
Region Canary Islands
Timezone Atlantic/Canary (UTC+1.0)
Plans Departing 192
Arriving 260
Stats Elevation 103 ft / 31 m (AMSL)
Location 27.814900° -17.887000°
Runways 1
Magnetic Variation 4.854° W
Sunrise 2024-07-24 06:31:21 UTC / 2024-07-24 07:31:21 Local
Sunset 2024-07-24 20:07:01 UTC / 2024-07-24 21:07:01 Local
Advertisement - Login to hide

Runways

ID Width Length Bearing (true/mag) Surface Threshold Overrun Markings Lighting
16 98 ft / 30 m 4,111 ft / 1,253 m 152.71° / 157.56° ASPHALT 0 ft / 0 m 125 ft / 38 m PREC-APP EDGE THRESHOLD REIL-OMNI
34 98 ft / 30 m 4,111 ft / 1,253 m 332.71° / 337.56° ASPHALT 0 ft / 0 m 121 ft / 37 m PREC-APP EDGE THRESHOLD REIL-OMNI

Map

Weather


0- 5 10 15 20 25 30 35+ Temperature / °C

Clouds and Precipitation
Forecast for 2024-04-15 18:00 UTC. Updated 3 months ago

Ground ~20,000 ft ~40,000 ft Winds

METAR

GCHI 241630Z 33021KT 9999 FEW025 25/19 Q1017

TAF

TAF GCHI 241400Z 2415/2515 34018KT 9999 FEW025 TX28/2514Z TN22/2506Z PROB30 TEMPO 2415/2422 34018G30KT PROB30 TEMPO 2510/2515 34018G30KT

Frequencies

Recorded 118.00 MHz Hierro Information
Approach 126.10 MHz Canarias Approach
Tower 118.10 MHz Hierro Tower
Warning: Do not use this data for real-world aviation or navigation. No guarantee of current accuracy is given.